ADDS METAR Data INFO
IDs: Format: Raw Decoded Include TAF

Data at: 0155 UTC 18 Oct 2017

METAR for:KSJC (San Jose Intl Arpt, CA, US)
Text:KSJC 180053Z 29008KT 5SM HZ FEW014 SCT075 BKN120 24/05 A3003 RMK AO2 SLP169 T02390050
Temperature: 23.9°C ( 75°F)
Dewpoint: 5.0°C ( 41°F) [RH = 29%]
Pressure (altimeter):30.03 inches Hg (1017.0 mb) [Sea level pressure: 1016.9 mb]
Winds:from the WNW (290 degrees) at 9 MPH (8 knots; 4.1 m/s)
Visibility: 5 sm ( 8 km)
Ceiling:12000 feet AGL
Clouds: few clouds at 1400 feet AGL, scattered clouds at 7500 feet AGL, broken clouds at 12000 feet AGL
Weather:HZ (haze)
Text:KSJC 172353Z 31006KT 7SM FEW016 SCT075 BKN110 26/01 A3003 RMK AO2 SLP169 T02610011 10267 20228 58010
Temperature: 26.1°C ( 79°F)
Dewpoint: 1.1°C ( 34°F) [RH = 20%]
Pressure (altimeter):30.03 inches Hg (1017.0 mb) [Sea level pressure: 1016.9 mb]
Winds:from the NW (310 degrees) at 7 MPH (6 knots; 3.1 m/s)
Visibility: 7 sm ( 11 km)
Ceiling:11000 feet AGL
Clouds: few clouds at 1600 feet AGL, scattered clouds at 7500 feet AGL, broken clouds at 11000 feet AGL
Text:KSJC 172253Z 30007KT 5SM HZ FEW012 SCT075 BKN110 25/03 A3005 RMK AO2 SLP175 HZ FEW012 T02500028
Temperature: 25.0°C ( 77°F)
Dewpoint: 2.8°C ( 37°F) [RH = 24%]
Pressure (altimeter):30.05 inches Hg (1017.7 mb) [Sea level pressure: 1017.5 mb]
Winds:from the WNW (300 degrees) at 8 MPH (7 knots; 3.6 m/s)
Visibility: 5 sm ( 8 km)
Ceiling:11000 feet AGL
Clouds: few clouds at 1200 feet AGL, scattered clouds at 7500 feet AGL, broken clouds at 11000 feet AGL
Weather:HZ (haze)
Text:KSJC 172153Z 33005KT 8SM FEW023 BKN090 OVC120 26/04 A3005 RMK AO2 SLP175 T02560039
Temperature: 25.6°C ( 78°F)
Dewpoint: 3.9°C ( 39°F) [RH = 25%]
Pressure (altimeter):30.05 inches Hg (1017.7 mb) [Sea level pressure: 1017.5 mb]
Winds:from the NNW (330 degrees) at 6 MPH (5 knots; 2.6 m/s)
Visibility: 8 sm ( 13 km)
Ceiling:9000 feet AGL
Clouds: few clouds at 2300 feet AGL, broken clouds at 9000 feet AGL, overcast cloud deck at 12000 feet AGL
Text:KSJC 172053Z 31006KT 9SM FEW027 BKN100 26/03 A3006 RMK AO2 SLP180 T02610028 58015
Temperature: 26.1°C ( 79°F)
Dewpoint: 2.8°C ( 37°F) [RH = 22%]
Pressure (altimeter):30.06 inches Hg (1018.0 mb) [Sea level pressure: 1018.0 mb]
Winds:from the NW (310 degrees) at 7 MPH (6 knots; 3.1 m/s)
Visibility: 9 sm ( 14 km)
Ceiling:10000 feet AGL
Clouds: few clouds at 2700 feet AGL, broken clouds at 10000 feet AGL
Text:KSJC 171953Z 33005KT 5SM HZ BKN100 25/03 A3009 RMK AO2 SLP189 T02500028
Temperature: 25.0°C ( 77°F)
Dewpoint: 2.8°C ( 37°F) [RH = 24%]
Pressure (altimeter):30.09 inches Hg (1019.0 mb) [Sea level pressure: 1018.9 mb]
Winds:from the NNW (330 degrees) at 6 MPH (5 knots; 2.6 m/s)
Visibility: 5 sm ( 8 km)
Ceiling:10000 feet AGL
Clouds: broken clouds at 10000 feet AGL
Weather:HZ (haze)
Text:KSJC 171853Z 00000KT 7SM FEW030 BKN100 23/04 A3010 RMK AO2 SLP192 T02330039
Temperature: 23.3°C ( 74°F)
Dewpoint: 3.9°C ( 39°F) [RH = 28%]
Pressure (altimeter):30.10 inches Hg (1019.4 mb) [Sea level pressure: 1019.2 mb]
Winds:calm
Visibility: 7 sm ( 11 km)
Ceiling:10000 feet AGL
Clouds: few clouds at 3000 feet AGL, broken clouds at 10000 feet AGL
Text:KSJC 171753Z VRB03KT 7SM FEW030 BKN100 23/04 A3011 RMK AO2 SLP194 T02280044 10228 20122 50009
Temperature: 22.8°C ( 73°F)
Dewpoint: 4.4°C ( 40°F) [RH = 30%]
Pressure (altimeter):30.11 inches Hg (1019.7 mb) [Sea level pressure: 1019.4 mb]
Winds:variable direction winds at 3 MPH (3 knots; 1.5 m/s)
Visibility: 7 sm ( 11 km)
Ceiling:10000 feet AGL
Clouds: few clouds at 3000 feet AGL, broken clouds at 10000 feet AGL
Text:KSJC 171653Z 00000KT 10SM FEW010 SCT035 BKN100 18/04 A3011 RMK AO2 SLP196 T01830044
Temperature: 18.3°C ( 65°F)
Dewpoint: 4.4°C ( 40°F) [RH = 40%]
Pressure (altimeter):30.11 inches Hg (1019.7 mb) [Sea level pressure: 1019.6 mb]
Winds:calm
Visibility:10 or more sm (16+ km)
Ceiling:10000 feet AGL
Clouds: few clouds at 1000 feet AGL, scattered clouds at 3500 feet AGL, broken clouds at 10000 feet AGL
Text:KSJC 171553Z 00000KT 10SM FEW010 SCT035 SCT110 16/03 A3010 RMK AO2 SLP192 T01610033
Temperature: 16.1°C ( 61°F)
Dewpoint: 3.3°C ( 38°F) [RH = 42%]
Pressure (altimeter):30.10 inches Hg (1019.4 mb) [Sea level pressure: 1019.2 mb]
Winds:calm
Visibility:10 or more sm (16+ km)
Ceiling:at least 12,000 feet AGL
Clouds: few clouds at 1000 feet AGL, scattered clouds at 3500 feet AGL, scattered clouds at 11000 feet AGL
Text:KSJC 171453Z 19004KT 10SM FEW010 SCT035 SCT110 14/04 A3008 RMK AO2 SLP185 T01390044 53009
Temperature: 13.9°C ( 57°F)
Dewpoint: 4.4°C ( 40°F) [RH = 53%]
Pressure (altimeter):30.08 inches Hg (1018.7 mb) [Sea level pressure: 1018.5 mb]
Winds:from the S (190 degrees) at 5 MPH (4 knots; 2.1 m/s)
Visibility:10 or more sm (16+ km)
Ceiling:at least 12,000 feet AGL
Clouds: few clouds at 1000 feet AGL, scattered clouds at 3500 feet AGL, scattered clouds at 11000 feet AGL